sensor_id;sensor_type;location;lat;lon;timestamp;temperature;humidity
48806;DHT22;34625;47.176;27.548;2023-04-24T00:00:22;22.30;55.00
48806;DHT22;34625;47.176;27.548;2023-04-24T00:02:48;22.20;55.00
48806;DHT22;34625;47.176;27.548;2023-04-24T00:05:15;22.30;55.10
48806;DHT22;34625;47.176;27.548;2023-04-24T00:07:46;22.40;55.10
48806;DHT22;34625;47.176;27.548;2023-04-24T00:10:12;22.20;55.00
48806;DHT22;34625;47.176;27.548;2023-04-24T00:12:38;22.20;55.20
48806;DHT22;34625;47.176;27.548;2023-04-24T00:15:05;22.20;55.30
48806;DHT22;34625;47.176;27.548;2023-04-24T00:17:31;22.40;55.40
48806;DHT22;34625;47.176;27.548;2023-04-24T00:19:58;22.20;55.20
48806;DHT22;34625;47.176;27.548;2023-04-24T00:22:25;22.20;55.30
48806;DHT22;34625;47.176;27.548;2023-04-24T00:24:51;22.30;55.50
48806;DHT22;34625;47.176;27.548;2023-04-24T00:27:17;22.30;55.50
48806;DHT22;34625;47.176;27.548;2023-04-24T00:29:43;22.20;55.40
48806;DHT22;34625;47.176;27.548;2023-04-24T00:32:10;22.10;55.40
48806;DHT22;34625;47.176;27.548;2023-04-24T00:34:36;22.10;55.40
48806;DHT22;34625;47.176;27.548;2023-04-24T00:37:02;22.20;55.30
48806;DHT22;34625;47.176;27.548;2023-04-24T00:39:28;22.20;55.40
48806;DHT22;34625;47.176;27.548;2023-04-24T00:41:54;22.20;55.30
48806;DHT22;34625;47.176;27.548;2023-04-24T00:44:21;22.30;55.40
48806;DHT22;34625;47.176;27.548;2023-04-24T00:46:47;22.10;55.30
48806;DHT22;34625;47.176;27.548;2023-04-24T00:49:18;22.10;55.20
48806;DHT22;34625;47.176;27.548;2023-04-24T00:51:44;22.40;55.30
48806;DHT22;34625;47.176;27.548;2023-04-24T00:54:12;22.10;55.20
48806;DHT22;34625;47.176;27.548;2023-04-24T00:56:40;22.20;55.20
48806;DHT22;34625;47.176;27.548;2023-04-24T00:59:06;22.20;55.30
48806;DHT22;34625;47.176;27.548;2023-04-24T01:01:32;22.00;55.30
48806;DHT22;34625;47.176;27.548;2023-04-24T01:03:59;22.10;55.30
48806;DHT22;34625;47.176;27.548;2023-04-24T01:06:28;22.00;55.40
48806;DHT22;34625;47.176;27.548;2023-04-24T01:08:54;22.00;55.40
48806;DHT22;34625;47.176;27.548;2023-04-24T01:11:22;22.00;55.50
48806;DHT22;34625;47.176;27.548;2023-04-24T01:13:48;22.10;55.60
48806;DHT22;34625;47.176;27.548;2023-04-24T01:16:14;22.00;55.50
48806;DHT22;34625;47.176;27.548;2023-04-24T01:18:43;22.00;55.50
48806;DHT22;34625;47.176;27.548;2023-04-24T01:21:12;21.90;55.50
48806;DHT22;34625;47.176;27.548;2023-04-24T01:23:39;21.90;55.60
48806;DHT22;34625;47.176;27.548;2023-04-24T01:26:06;22.00;55.60
48806;DHT22;34625;47.176;27.548;2023-04-24T01:28:32;22.00;55.60
48806;DHT22;34625;47.176;27.548;2023-04-24T01:30:58;21.90;55.60
48806;DHT22;34625;47.176;27.548;2023-04-24T01:33:25;22.00;55.60
48806;DHT22;34625;47.176;27.548;2023-04-24T01:35:51;21.90;55.60
48806;DHT22;34625;47.176;27.548;2023-04-24T01:38:18;21.80;55.50
48806;DHT22;34625;47.176;27.548;2023-04-24T01:40:44;21.80;55.50
48806;DHT22;34625;47.176;27.548;2023-04-24T01:43:11;21.80;55.50
48806;DHT22;34625;47.176;27.548;2023-04-24T01:45:37;21.90;55.60
48806;DHT22;34625;47.176;27.548;2023-04-24T01:48:04;21.80;55.60
48806;DHT22;34625;47.176;27.548;2023-04-24T01:50:30;21.80;55.60
48806;DHT22;34625;47.176;27.548;2023-04-24T01:52:56;21.90;55.60
48806;DHT22;34625;47.176;27.548;2023-04-24T01:55:22;21.80;55.40
48806;DHT22;34625;47.176;27.548;2023-04-24T01:57:49;21.80;55.40
48806;DHT22;34625;47.176;27.548;2023-04-24T02:00:15;21.80;55.40
48806;DHT22;34625;47.176;27.548;2023-04-24T02:02:41;22.00;55.50
48806;DHT22;34625;47.176;27.548;2023-04-24T02:05:08;21.90;55.40
48806;DHT22;34625;47.176;27.548;2023-04-24T02:07:38;22.00;55.40
48806;DHT22;34625;47.176;27.548;2023-04-24T02:10:05;21.90;55.40
48806;DHT22;34625;47.176;27.548;2023-04-24T02:12:32;22.00;55.30
48806;DHT22;34625;47.176;27.548;2023-04-24T02:14:58;21.90;55.20
48806;DHT22;34625;47.176;27.548;2023-04-24T02:17:24;22.00;55.30
48806;DHT22;34625;47.176;27.548;2023-04-24T02:19:50;22.00;55.10
48806;DHT22;34625;47.176;27.548;2023-04-24T02:22:16;22.20;55.20
48806;DHT22;34625;47.176;27.548;2023-04-24T02:24:42;22.10;55.20
48806;DHT22;34625;47.176;27.548;2023-04-24T02:27:08;22.20;55.10
48806;DHT22;34625;47.176;27.548;2023-04-24T02:29:34;22.10;55.10
48806;DHT22;34625;47.176;27.548;2023-04-24T02:32:00;22.10;55.10
48806;DHT22;34625;47.176;27.548;2023-04-24T02:34:26;22.30;55.20
48806;DHT22;34625;47.176;27.548;2023-04-24T02:36:52;22.10;55.10
48806;DHT22;34625;47.176;27.548;2023-04-24T02:39:20;22.20;54.90
48806;DHT22;34625;47.176;27.548;2023-04-24T02:41:46;22.20;54.80
48806;DHT22;34625;47.176;27.548;2023-04-24T02:44:12;22.20;54.80
48806;DHT22;34625;47.176;27.548;2023-04-24T02:46:39;22.20;54.80
48806;DHT22;34625;47.176;27.548;2023-04-24T02:49:06;22.30;54.90
48806;DHT22;34625;47.176;27.548;2023-04-24T02:51:33;22.20;54.80
48806;DHT22;34625;47.176;27.548;2023-04-24T02:53:59;22.40;54.70
48806;DHT22;34625;47.176;27.548;2023-04-24T02:56:25;22.40;54.70
48806;DHT22;34625;47.176;27.548;2023-04-24T02:58:51;22.40;54.60
48806;DHT22;34625;47.176;27.548;2023-04-24T03:01:18;22.30;54.70
48806;DHT22;34625;47.176;27.548;2023-04-24T03:03:44;22.40;54.80
48806;DHT22;34625;47.176;27.548;2023-04-24T03:06:10;22.20;54.70
48806;DHT22;34625;47.176;27.548;2023-04-24T03:08:36;22.30;54.70
48806;DHT22;34625;47.176;27.548;2023-04-24T03:11:02;22.30;54.80
48806;DHT22;34625;47.176;27.548;2023-04-24T03:13:28;22.30;54.70
48806;DHT22;34625;47.176;27.548;2023-04-24T03:15:54;22.20;54.60
48806;DHT22;34625;47.176;27.548;2023-04-24T03:18:20;22.20;54.70
48806;DHT22;34625;47.176;27.548;2023-04-24T03:20:49;22.30;55.00
48806;DHT22;34625;47.176;27.548;2023-04-24T03:23:15;22.20;54.80
48806;DHT22;34625;47.176;27.548;2023-04-24T03:25:41;22.40;54.80
48806;DHT22;34625;47.176;27.548;2023-04-24T03:28:10;22.30;54.60
48806;DHT22;34625;47.176;27.548;2023-04-24T03:30:46;22.40;54.30
48806;DHT22;34625;47.176;27.548;2023-04-24T03:33:13;22.50;54.30
48806;DHT22;34625;47.176;27.548;2023-04-24T03:35:47;22.60;54.00
48806;DHT22;34625;47.176;27.548;2023-04-24T03:38:14;22.70;53.90
48806;DHT22;34625;47.176;27.548;2023-04-24T03:41:06;22.60;53.70
48806;DHT22;34625;47.176;27.548;2023-04-24T03:43:43;22.70;53.70
48806;DHT22;34625;47.176;27.548;2023-04-24T03:46:10;22.70;53.60
48806;DHT22;34625;47.176;27.548;2023-04-24T03:48:40;22.80;53.50
48806;DHT22;34625;47.176;27.548;2023-04-24T03:51:07;22.70;53.70
48806;DHT22;34625;47.176;27.548;2023-04-24T03:53:36;22.80;53.90
48806;DHT22;34625;47.176;27.548;2023-04-24T03:56:02;22.80;53.70
48806;DHT22;34625;47.176;27.548;2023-04-24T03:58:29;22.80;53.50
48806;DHT22;34625;47.176;27.548;2023-04-24T04:00:55;22.80;53.40
48806;DHT22;34625;47.176;27.548;2023-04-24T04:03:43;22.80;53.30
48806;DHT22;34625;47.176;27.548;2023-04-24T04:06:09;22.90;53.40
48806;DHT22;34625;47.176;27.548;2023-04-24T04:08:37;22.90;53.40
48806;DHT22;34625;47.176;27.548;2023-04-24T04:11:03;22.90;53.30
48806;DHT22;34625;47.176;27.548;2023-04-24T04:13:30;22.90;53.40
48806;DHT22;34625;47.176;27.548;2023-04-24T04:15:56;23.00;53.50
48806;DHT22;34625;47.176;27.548;2023-04-24T04:18:23;22.90;55.60
48806;DHT22;34625;47.176;27.548;2023-04-24T04:20:49;23.10;57.10
48806;DHT22;34625;47.176;27.548;2023-04-24T04:23:16;23.30;58.20
48806;DHT22;34625;47.176;27.548;2023-04-24T04:26:01;23.40;58.20
48806;DHT22;34625;47.176;27.548;2023-04-24T04:28:39;23.40;57.40
48806;DHT22;34625;47.176;27.548;2023-04-24T04:31:06;23.40;57.80
48806;DHT22;34625;47.176;27.548;2023-04-24T04:33:34;23.60;56.40
48806;DHT22;34625;47.176;27.548;2023-04-24T04:36:02;23.40;53.10
48806;DHT22;34625;47.176;27.548;2023-04-24T04:38:29;23.50;52.00
48806;DHT22;34625;47.176;27.548;2023-04-24T04:41:12;23.40;51.20
48806;DHT22;34625;47.176;27.548;2023-04-24T04:43:40;23.30;51.40
48806;DHT22;34625;47.176;27.548;2023-04-24T04:46:07;23.30;51.80
48806;DHT22;34625;47.176;27.548;2023-04-24T04:48:59;23.30;52.30
48806;DHT22;34625;47.176;27.548;2023-04-24T04:51:25;23.20;52.70
48806;DHT22;34625;47.176;27.548;2023-04-24T04:53:52;23.20;53.00
48806;DHT22;34625;47.176;27.548;2023-04-24T04:56:18;23.20;53.30
48806;DHT22;34625;47.176;27.548;2023-04-24T04:58:45;23.10;53.40
48806;DHT22;34625;47.176;27.548;2023-04-24T05:01:14;23.10;53.60
48806;DHT22;34625;47.176;27.548;2023-04-24T05:03:44;23.20;53.60
48806;DHT22;34625;47.176;27.548;2023-04-24T05:06:13;23.30;53.50
48806;DHT22;34625;47.176;27.548;2023-04-24T05:08:40;23.20;53.40
48806;DHT22;34625;47.176;27.548;2023-04-24T05:11:09;23.40;51.30
48806;DHT22;34625;47.176;27.548;2023-04-24T05:13:37;23.20;49.70
48806;DHT22;34625;47.176;27.548;2023-04-24T05:16:06;23.20;48.00
48806;DHT22;34625;47.176;27.548;2023-04-24T05:18:33;23.10;47.40
48806;DHT22;34625;47.176;27.548;2023-04-24T05:21:00;23.00;47.30
48806;DHT22;34625;47.176;27.548;2023-04-24T05:23:27;23.00;49.00
48806;DHT22;34625;47.176;27.548;2023-04-24T05:25:55;23.10;48.40
48806;DHT22;34625;47.176;27.548;2023-04-24T05:28:21;23.10;48.30
48806;DHT22;34625;47.176;27.548;2023-04-24T05:30:57;23.10;51.30
48806;DHT22;34625;47.176;27.548;2023-04-24T05:33:25;23.00;48.60
48806;DHT22;34625;47.176;27.548;2023-04-24T05:35:51;23.10;48.70
48806;DHT22;34625;47.176;27.548;2023-04-24T05:38:17;23.00;49.30
48806;DHT22;34625;47.176;27.548;2023-04-24T05:40:45;23.10;49.40
48806;DHT22;34625;47.176;27.548;2023-04-24T05:43:12;23.00;48.80
48806;DHT22;34625;47.176;27.548;2023-04-24T05:45:38;23.00;49.10
48806;DHT22;34625;47.176;27.548;2023-04-24T05:48:04;22.90;49.30
48806;DHT22;34625;47.176;27.548;2023-04-24T05:50:32;22.90;50.20
48806;DHT22;34625;47.176;27.548;2023-04-24T05:52:58;23.10;47.90
48806;DHT22;34625;47.176;27.548;2023-04-24T05:55:30;23.10;48.00
48806;DHT22;34625;47.176;27.548;2023-04-24T05:57:57;23.10;48.40
48806;DHT22;34625;47.176;27.548;2023-04-24T06:00:24;23.20;49.70
48806;DHT22;34625;47.176;27.548;2023-04-24T06:03:00;23.30;53.90
48806;DHT22;34625;47.176;27.548;2023-04-24T06:05:26;23.40;54.20
48806;DHT22;34625;47.176;27.548;2023-04-24T06:07:53;23.40;54.20
48806;DHT22;34625;47.176;27.548;2023-04-24T06:10:21;23.40;54.90
48806;DHT22;34625;47.176;27.548;2023-04-24T06:12:49;23.50;55.20
48806;DHT22;34625;47.176;27.548;2023-04-24T06:15:17;23.40;55.30
48806;DHT22;34625;47.176;27.548;2023-04-24T06:17:57;23.40;52.60
48806;DHT22;34625;47.176;27.548;2023-04-24T06:20:23;23.30;55.10
48806;DHT22;34625;47.176;27.548;2023-04-24T06:22:50;23.40;55.40
48806;DHT22;34625;47.176;27.548;2023-04-24T06:25:16;23.30;55.60
48806;DHT22;34625;47.176;27.548;2023-04-24T06:27:43;23.50;55.70
48806;DHT22;34625;47.176;27.548;2023-04-24T06:30:09;23.50;55.40
48806;DHT22;34625;47.176;27.548;2023-04-24T06:32:35;23.60;55.30
48806;DHT22;34625;47.176;27.548;2023-04-24T06:35:01;23.40;54.50
48806;DHT22;34625;47.176;27.548;2023-04-24T06:37:27;23.40;55.00
48806;DHT22;34625;47.176;27.548;2023-04-24T06:39:53;23.40;55.20
48806;DHT22;34625;47.176;27.548;2023-04-24T06:42:19;23.50;55.60
48806;DHT22;34625;47.176;27.548;2023-04-24T06:44:49;23.60;54.50
48806;DHT22;34625;47.176;27.548;2023-04-24T06:47:15;23.50;55.30
48806;DHT22;34625;47.176;27.548;2023-04-24T06:49:41;23.50;54.80
48806;DHT22;34625;47.176;27.548;2023-04-24T06:52:08;23.60;55.30
48806;DHT22;34625;47.176;27.548;2023-04-24T06:54:34;23.50;55.40
48806;DHT22;34625;47.176;27.548;2023-04-24T06:57:00;23.50;55.30
48806;DHT22;34625;47.176;27.548;2023-04-24T06:59:27;23.50;55.20
48806;DHT22;34625;47.176;27.548;2023-04-24T07:01:54;23.70;55.60
48806;DHT22;34625;47.176;27.548;2023-04-24T07:04:20;23.60;55.40
48806;DHT22;34625;47.176;27.548;2023-04-24T07:06:47;23.70;54.60
48806;DHT22;34625;47.176;27.548;2023-04-24T07:09:13;23.70;55.40
48806;DHT22;34625;47.176;27.548;2023-04-24T07:11:39;23.70;55.40
48806;DHT22;34625;47.176;27.548;2023-04-24T07:14:06;23.70;56.10
48806;DHT22;34625;47.176;27.548;2023-04-24T07:16:32;23.70;55.80
48806;DHT22;34625;47.176;27.548;2023-04-24T07:18:58;23.70;55.80
48806;DHT22;34625;47.176;27.548;2023-04-24T07:21:25;23.70;55.70
48806;DHT22;34625;47.176;27.548;2023-04-24T07:23:51;23.70;55.60
48806;DHT22;34625;47.176;27.548;2023-04-24T07:26:17;23.80;55.20
48806;DHT22;34625;47.176;27.548;2023-04-24T07:28:43;23.70;54.50
48806;DHT22;34625;47.176;27.548;2023-04-24T07:31:11;23.70;54.00
48806;DHT22;34625;47.176;27.548;2023-04-24T07:33:37;23.80;54.70
48806;DHT22;34625;47.176;27.548;2023-04-24T07:36:04;23.80;55.50
48806;DHT22;34625;47.176;27.548;2023-04-24T07:38:30;23.90;55.50
48806;DHT22;34625;47.176;27.548;2023-04-24T07:40:56;23.80;55.50
48806;DHT22;34625;47.176;27.548;2023-04-24T07:43:22;23.70;53.70
48806;DHT22;34625;47.176;27.548;2023-04-24T07:45:52;23.80;54.20
48806;DHT22;34625;47.176;27.548;2023-04-24T07:48:18;23.70;54.00
48806;DHT22;34625;47.176;27.548;2023-04-24T07:50:45;23.70;54.50
48806;DHT22;34625;47.176;27.548;2023-04-24T07:53:11;23.70;57.30
48806;DHT22;34625;47.176;27.548;2023-04-24T07:55:37;23.70;57.80
48806;DHT22;34625;47.176;27.548;2023-04-24T07:58:04;23.70;57.80
48806;DHT22;34625;47.176;27.548;2023-04-24T08:00:30;23.70;57.50
48806;DHT22;34625;47.176;27.548;2023-04-24T08:02:56;23.70;58.10
48806;DHT22;34625;47.176;27.548;2023-04-24T08:05:22;23.70;58.40
48806;DHT22;34625;47.176;27.548;2023-04-24T08:07:48;23.60;57.20
48806;DHT22;34625;47.176;27.548;2023-04-24T08:10:16;23.70;56.40
48806;DHT22;34625;47.176;27.548;2023-04-24T08:12:42;23.70;55.10
48806;DHT22;34625;47.176;27.548;2023-04-24T08:15:08;23.60;54.90
48806;DHT22;34625;47.176;27.548;2023-04-24T08:17:35;23.60;53.90
48806;DHT22;34625;47.176;27.548;2023-04-24T08:20:02;23.60;54.20
48806;DHT22;34625;47.176;27.548;2023-04-24T08:22:30;23.70;60.20
48806;DHT22;34625;47.176;27.548;2023-04-24T08:24:57;23.70;67.90
48806;DHT22;34625;47.176;27.548;2023-04-24T08:27:26;23.80;62.30
48806;DHT22;34625;47.176;27.548;2023-04-24T08:29:55;23.90;59.20
48806;DHT22;34625;47.176;27.548;2023-04-24T08:32:21;23.70;57.20
48806;DHT22;34625;47.176;27.548;2023-04-24T08:34:47;24.00;56.60
48806;DHT22;34625;47.176;27.548;2023-04-24T08:37:13;23.90;56.40
48806;DHT22;34625;47.176;27.548;2023-04-24T08:39:39;23.90;56.30
48806;DHT22;34625;47.176;27.548;2023-04-24T08:42:05;23.90;55.90
48806;DHT22;34625;47.176;27.548;2023-04-24T08:44:34;24.00;55.50
48806;DHT22;34625;47.176;27.548;2023-04-24T08:47:04;24.10;54.50
48806;DHT22;34625;47.176;27.548;2023-04-24T08:49:31;24.10;54.80
48806;DHT22;34625;47.176;27.548;2023-04-24T08:51:59;24.10;54.20
48806;DHT22;34625;47.176;27.548;2023-04-24T08:54:26;24.10;52.50
48806;DHT22;34625;47.176;27.548;2023-04-24T08:56:53;24.10;52.80
48806;DHT22;34625;47.176;27.548;2023-04-24T08:59:21;24.20;51.90
48806;DHT22;34625;47.176;27.548;2023-04-24T09:01:48;24.10;52.40
48806;DHT22;34625;47.176;27.548;2023-04-24T09:04:15;24.00;53.60
48806;DHT22;34625;47.176;27.548;2023-04-24T09:06:44;24.10;51.70
48806;DHT22;34625;47.176;27.548;2023-04-24T09:09:10;24.10;50.20
48806;DHT22;34625;47.176;27.548;2023-04-24T09:11:37;24.10;49.00
48806;DHT22;34625;47.176;27.548;2023-04-24T09:14:03;24.00;50.90
48806;DHT22;34625;47.176;27.548;2023-04-24T09:16:30;24.10;51.40
48806;DHT22;34625;47.176;27.548;2023-04-24T09:18:58;24.30;49.00
48806;DHT22;34625;47.176;27.548;2023-04-24T09:21:34;24.40;46.30
48806;DHT22;34625;47.176;27.548;2023-04-24T09:24:16;24.20;45.90
48806;DHT22;34625;47.176;27.548;2023-04-24T09:26:49;24.10;46.70
48806;DHT22;34625;47.176;27.548;2023-04-24T09:29:18;24.00;48.60
48806;DHT22;34625;47.176;27.548;2023-04-24T09:31:45;24.10;49.50
48806;DHT22;34625;47.176;27.548;2023-04-24T09:34:11;24.00;50.30
48806;DHT22;34625;47.176;27.548;2023-04-24T09:36:40;24.10;50.60
48806;DHT22;34625;47.176;27.548;2023-04-24T09:39:08;24.10;51.20
48806;DHT22;34625;47.176;27.548;2023-04-24T09:41:56;24.10;51.70
48806;DHT22;34625;47.176;27.548;2023-04-24T09:44:25;24.10;51.50
48806;DHT22;34625;47.176;27.548;2023-04-24T09:46:59;24.20;48.40
48806;DHT22;34625;47.176;27.548;2023-04-24T09:49:29;24.20;49.00
48806;DHT22;34625;47.176;27.548;2023-04-24T09:52:06;24.20;51.40
48806;DHT22;34625;47.176;27.548;2023-04-24T09:54:33;24.40;52.10
48806;DHT22;34625;47.176;27.548;2023-04-24T09:56:59;24.50;47.60
48806;DHT22;34625;47.176;27.548;2023-04-24T09:59:28;24.50;47.50
48806;DHT22;34625;47.176;27.548;2023-04-24T10:01:55;24.60;48.20
48806;DHT22;34625;47.176;27.548;2023-04-24T10:04:23;24.50;47.40
48806;DHT22;34625;47.176;27.548;2023-04-24T10:06:51;24.60;47.10
48806;DHT22;34625;47.176;27.548;2023-04-24T10:09:19;24.60;46.20
48806;DHT22;34625;47.176;27.548;2023-04-24T10:11:47;24.60;46.60
48806;DHT22;34625;47.176;27.548;2023-04-24T10:14:18;24.60;46.50
48806;DHT22;34625;47.176;27.548;2023-04-24T10:16:44;24.50;47.30
48806;DHT22;34625;47.176;27.548;2023-04-24T10:19:13;24.60;48.90
48806;DHT22;34625;47.176;27.548;2023-04-24T10:21:41;24.50;48.10
48806;DHT22;34625;47.176;27.548;2023-04-24T10:24:08;24.70;49.30
48806;DHT22;34625;47.176;27.548;2023-04-24T10:26:35;24.80;51.40
48806;DHT22;34625;47.176;27.548;2023-04-24T10:29:05;24.80;52.70
48806;DHT22;34625;47.176;27.548;2023-04-24T10:31:36;24.80;52.90
48806;DHT22;34625;47.176;27.548;2023-04-24T10:34:05;24.70;52.90
48806;DHT22;34625;47.176;27.548;2023-04-24T10:36:35;24.70;50.60
48806;DHT22;34625;47.176;27.548;2023-04-24T10:39:05;24.70;49.20
48806;DHT22;34625;47.176;27.548;2023-04-24T10:41:37;24.60;50.90
48806;DHT22;34625;47.176;27.548;2023-04-24T10:46:39;24.70;51.70
48806;DHT22;34625;47.176;27.548;2023-04-24T10:49:06;24.60;52.80
48806;DHT22;34625;47.176;27.548;2023-04-24T10:51:51;24.70;52.80
48806;DHT22;34625;47.176;27.548;2023-04-24T10:54:26;24.70;53.00
48806;DHT22;34625;47.176;27.548;2023-04-24T10:56:53;24.70;51.70
48806;DHT22;34625;47.176;27.548;2023-04-24T10:59:26;24.60;50.20
48806;DHT22;34625;47.176;27.548;2023-04-24T11:01:53;24.50;52.30
48806;DHT22;34625;47.176;27.548;2023-04-24T11:04:33;24.70;53.10
48806;DHT22;34625;47.176;27.548;2023-04-24T11:06:59;24.60;52.60
48806;DHT22;34625;47.176;27.548;2023-04-24T11:09:31;24.60;52.10
48806;DHT22;34625;47.176;27.548;2023-04-24T11:12:11;24.60;52.30
48806;DHT22;34625;47.176;27.548;2023-04-24T11:17:35;24.50;53.30
48806;DHT22;34625;47.176;27.548;2023-04-24T11:20:08;24.50;53.70
48806;DHT22;34625;47.176;27.548;2023-04-24T11:22:38;24.60;49.20
48806;DHT22;34625;47.176;27.548;2023-04-24T11:25:06;24.50;51.40
48806;DHT22;34625;47.176;27.548;2023-04-24T11:27:39;24.50;53.80
48806;DHT22;34625;47.176;27.548;2023-04-24T11:30:06;24.50;54.00
48806;DHT22;34625;47.176;27.548;2023-04-24T11:37:37;24.30;53.10
48806;DHT22;34625;47.176;27.548;2023-04-24T11:40:05;24.30;52.20
48806;DHT22;34625;47.176;27.548;2023-04-24T11:42:35;24.30;55.80
48806;DHT22;34625;47.176;27.548;2023-04-24T11:45:02;24.40;56.40
48806;DHT22;34625;47.176;27.548;2023-04-24T11:47:32;24.50;52.20
48806;DHT22;34625;47.176;27.548;2023-04-24T11:50:00;24.40;55.70
48806;DHT22;34625;47.176;27.548;2023-04-24T11:52:27;24.50;55.30
48806;DHT22;34625;47.176;27.548;2023-04-24T11:54:53;24.50;54.40
48806;DHT22;34625;47.176;27.548;2023-04-24T11:57:20;24.40;49.50
48806;DHT22;34625;47.176;27.548;2023-04-24T11:59:47;24.50;46.00
48806;DHT22;34625;47.176;27.548;2023-04-24T12:02:25;24.50;45.30
48806;DHT22;34625;47.176;27.548;2023-04-24T12:04:52;24.60;49.70
48806;DHT22;34625;47.176;27.548;2023-04-24T12:07:19;24.50;49.00
48806;DHT22;34625;47.176;27.548;2023-04-24T12:09:56;24.60;47.80
48806;DHT22;34625;47.176;27.548;2023-04-24T12:12:24;24.50;49.80
48806;DHT22;34625;47.176;27.548;2023-04-24T12:14:56;24.50;48.30
48806;DHT22;34625;47.176;27.548;2023-04-24T12:17:33;24.50;49.20
48806;DHT22;34625;47.176;27.548;2023-04-24T12:20:01;24.50;48.50
48806;DHT22;34625;47.176;27.548;2023-04-24T12:22:42;24.50;41.50
48806;DHT22;34625;47.176;27.548;2023-04-24T12:25:10;24.60;42.10
48806;DHT22;34625;47.176;27.548;2023-04-24T12:27:36;24.50;44.10
48806;DHT22;34625;47.176;27.548;2023-04-24T12:30:04;24.50;47.70
48806;DHT22;34625;47.176;27.548;2023-04-24T12:32:31;24.50;47.80
48806;DHT22;34625;47.176;27.548;2023-04-24T12:34:58;24.50;44.40
48806;DHT22;34625;47.176;27.548;2023-04-24T12:37:25;24.30;44.40
48806;DHT22;34625;47.176;27.548;2023-04-24T12:40:10;24.50;46.30
48806;DHT22;34625;47.176;27.548;2023-04-24T12:42:45;24.40;41.40
48806;DHT22;34625;47.176;27.548;2023-04-24T12:45:12;24.50;46.70
48806;DHT22;34625;47.176;27.548;2023-04-24T12:47:39;24.40;46.20
48806;DHT22;34625;47.176;27.548;2023-04-24T12:50:14;24.40;46.30
48806;DHT22;34625;47.176;27.548;2023-04-24T12:52:41;24.40;45.70
48806;DHT22;34625;47.176;27.548;2023-04-24T12:55:08;24.30;47.20
48806;DHT22;34625;47.176;27.548;2023-04-24T12:57:36;24.50;44.90
48806;DHT22;34625;47.176;27.548;2023-04-24T13:00:03;24.60;42.50
48806;DHT22;34625;47.176;27.548;2023-04-24T13:02:31;24.30;39.20
48806;DHT22;34625;47.176;27.548;2023-04-24T13:04:58;24.40;42.30
48806;DHT22;34625;47.176;27.548;2023-04-24T13:07:26;24.40;43.70
48806;DHT22;34625;47.176;27.548;2023-04-24T13:09:53;24.40;43.60
48806;DHT22;34625;47.176;27.548;2023-04-24T13:12:19;24.40;45.50
48806;DHT22;34625;47.176;27.548;2023-04-24T13:14:46;24.20;46.40
48806;DHT22;34625;47.176;27.548;2023-04-24T13:17:12;24.30;44.20
48806;DHT22;34625;47.176;27.548;2023-04-24T13:19:41;24.30;46.90
48806;DHT22;34625;47.176;27.548;2023-04-24T13:22:10;24.20;46.80
48806;DHT22;34625;47.176;27.548;2023-04-24T13:24:36;24.30;46.90
48806;DHT22;34625;47.176;27.548;2023-04-24T13:27:03;24.30;47.10
48806;DHT22;34625;47.176;27.548;2023-04-24T13:29:29;24.30;46.90
48806;DHT22;34625;47.176;27.548;2023-04-24T13:31:56;24.20;47.20
48806;DHT22;34625;47.176;27.548;2023-04-24T13:34:23;24.20;47.20
48806;DHT22;34625;47.176;27.548;2023-04-24T13:36:51;24.30;47.50
48806;DHT22;34625;47.176;27.548;2023-04-24T13:39:17;24.20;47.70
48806;DHT22;34625;47.176;27.548;2023-04-24T13:41:43;24.20;47.80
48806;DHT22;34625;47.176;27.548;2023-04-24T13:44:09;24.10;47.70
48806;DHT22;34625;47.176;27.548;2023-04-24T13:46:35;24.20;48.00
48806;DHT22;34625;47.176;27.548;2023-04-24T13:49:02;24.20;48.30
48806;DHT22;34625;47.176;27.548;2023-04-24T13:51:29;24.10;47.80
48806;DHT22;34625;47.176;27.548;2023-04-24T13:53:56;24.20;48.30
48806;DHT22;34625;47.176;27.548;2023-04-24T13:56:22;24.10;48.40
48806;DHT22;34625;47.176;27.548;2023-04-24T13:58:48;24.20;48.90
48806;DHT22;34625;47.176;27.548;2023-04-24T14:01:15;24.10;49.00
48806;DHT22;34625;47.176;27.548;2023-04-24T14:03:42;24.10;48.70
48806;DHT22;34625;47.176;27.548;2023-04-24T14:06:09;24.10;49.20
48806;DHT22;34625;47.176;27.548;2023-04-24T14:08:35;24.00;49.40
48806;DHT22;34625;47.176;27.548;2023-04-24T14:11:01;24.10;50.00
48806;DHT22;34625;47.176;27.548;2023-04-24T14:13:27;23.80;47.90
48806;DHT22;34625;47.176;27.548;2023-04-24T14:15:53;23.90;49.90
48806;DHT22;34625;47.176;27.548;2023-04-24T14:18:19;23.90;49.50
48806;DHT22;34625;47.176;27.548;2023-04-24T14:20:45;23.90;50.20
48806;DHT22;34625;47.176;27.548;2023-04-24T14:23:11;24.00;50.10
48806;DHT22;34625;47.176;27.548;2023-04-24T14:25:37;23.90;50.30
48806;DHT22;34625;47.176;27.548;2023-04-24T14:28:03;23.80;51.50
48806;DHT22;34625;47.176;27.548;2023-04-24T14:30:31;23.90;51.20
48806;DHT22;34625;47.176;27.548;2023-04-24T14:32:57;24.10;51.70
48806;DHT22;34625;47.176;27.548;2023-04-24T14:35:23;23.90;51.60
48806;DHT22;34625;47.176;27.548;2023-04-24T14:37:49;24.00;50.50
48806;DHT22;34625;47.176;27.548;2023-04-24T14:40:15;23.90;48.90
48806;DHT22;34625;47.176;27.548;2023-04-24T14:42:41;24.00;51.10
48806;DHT22;34625;47.176;27.548;2023-04-24T14:45:07;24.20;47.60
48806;DHT22;34625;47.176;27.548;2023-04-24T14:47:34;24.00;50.80
48806;DHT22;34625;47.176;27.548;2023-04-24T14:50:00;23.90;44.70
48806;DHT22;34625;47.176;27.548;2023-04-24T14:52:26;24.00;48.50
48806;DHT22;34625;47.176;27.548;2023-04-24T14:54:52;24.10;43.70
48806;DHT22;34625;47.176;27.548;2023-04-24T14:57:17;24.00;43.60
48806;DHT22;34625;47.176;27.548;2023-04-24T14:59:44;24.00;45.70
48806;DHT22;34625;47.176;27.548;2023-04-24T15:02:10;24.00;43.40
48806;DHT22;34625;47.176;27.548;2023-04-24T15:04:36;24.10;42.50
48806;DHT22;34625;47.176;27.548;2023-04-24T15:07:02;24.00;44.20
48806;DHT22;34625;47.176;27.548;2023-04-24T15:09:28;24.30;44.30
48806;DHT22;34625;47.176;27.548;2023-04-24T15:11:54;24.50;46.30
48806;DHT22;34625;47.176;27.548;2023-04-24T15:14:21;24.50;47.00
48806;DHT22;34625;47.176;27.548;2023-04-24T15:16:47;24.40;40.50
48806;DHT22;34625;47.176;27.548;2023-04-24T15:19:12;24.40;39.00
48806;DHT22;34625;47.176;27.548;2023-04-24T15:21:38;24.20;39.40
48806;DHT22;34625;47.176;27.548;2023-04-24T15:24:07;24.30;39.70
48806;DHT22;34625;47.176;27.548;2023-04-24T15:26:33;24.20;39.70
48806;DHT22;34625;47.176;27.548;2023-04-24T15:29:00;24.10;40.20